Time,TemperatureF,DewpointF,PressureIn,WindDirection,WindDirectionDegrees,WindSpeedMPH,WindSpeedGustMPH,Humidity,HourlyPrecipIn,Conditions,Clouds,dailyrainin,SoftwareType,DateUTC
2013-08-22 00:00:00,76.5,69.9,29.99,SW,229,1.0,4.0,80,0.00,,,0.00,WeatherTracker,2013-08-22 05:00:00,
2013-08-22 00:10:00,76.2,69.9,29.99,West,271,4.0,4.0,81,0.00,,,0.00,WeatherTracker,2013-08-22 05:10:00,
2013-08-22 00:15:00,76.0,69.7,29.99,WSW,254,0.0,4.0,81,0.00,,,0.00,WeatherTracker,2013-08-22 05:15:00,
2013-08-22 00:20:00,75.8,69.9,29.99,WSW,254,0.0,4.0,82,0.00,,,0.00,WeatherTracker,2013-08-22 05:20:00,
2013-08-22 00:25:00,75.7,69.8,29.99,WSW,250,3.0,4.0,82,0.00,,,0.00,WeatherTracker,2013-08-22 05:25:00,
2013-08-22 00:35:00,75.4,69.9,29.99,WSW,248,1.0,3.0,83,0.00,,,0.00,WeatherTracker,2013-08-22 05:35:00,
2013-08-22 00:40:00,75.2,69.7,29.99,WSW,248,0.0,3.0,83,0.00,,,0.00,WeatherTracker,2013-08-22 05:40:00,
2013-08-22 00:45:00,75.1,69.6,29.99,WSW,248,0.0,2.0,83,0.00,,,0.00,WeatherTracker,2013-08-22 05:45:00,
2013-08-22 00:50:00,74.9,69.4,29.99,WSW,248,0.0,2.0,83,0.00,,,0.00,WeatherTracker,2013-08-22 05:50:00,
2013-08-22 01:00:00,74.7,69.5,29.98,WSW,248,0.0,3.0,84,0.00,,,0.00,WeatherTracker,2013-08-22 06:00:00,
2013-08-22 01:05:00,74.6,69.4,29.99,WSW,248,0.0,3.0,84,0.00,,,0.00,WeatherTracker,2013-08-22 06:05:00,
2013-08-22 01:10:00,74.4,69.2,29.99,WSW,248,0.0,2.0,84,0.00,,,0.00,WeatherTracker,2013-08-22 06:10:00,
2013-08-22 01:15:00,74.3,69.5,29.99,WSW,248,0.0,2.0,85,0.00,,,0.00,WeatherTracker,2013-08-22 06:15:00,
2013-08-22 01:25:00,74.0,69.2,29.99,WSW,248,0.0,1.0,85,0.00,,,0.00,WeatherTracker,2013-08-22 06:25:00,
2013-08-22 01:30:00,73.9,69.1,29.99,WSW,248,0.0,1.0,85,0.00,,,0.00,WeatherTracker,2013-08-22 06:30:00,
2013-08-22 01:35:00,73.8,69.0,30.00,WSW,248,1.0,1.0,85,0.00,,,0.00,WeatherTracker,2013-08-22 06:35:00,
2013-08-22 01:40:00,73.7,68.9,30.00,WSW,248,0.0,1.0,85,0.00,,,0.00,WeatherTracker,2013-08-22 06:40:00,
2013-08-22 01:50:00,73.4,68.9,30.00,WSW,248,0.0,0.0,86,0.00,,,0.00,WeatherTracker,2013-08-22 06:50:00,
2013-08-22 02:00:00,73.1,68.7,30.00,WSW,248,0.0,1.0,86,0.00,,,0.00,WeatherTracker,2013-08-22 07:00:00,
2013-08-22 02:05:00,73.0,68.6,30.00,WSW,248,0.0,0.0,86,0.00,,,0.00,WeatherTracker,2013-08-22 07:05:00,
2013-08-22 02:10:00,72.9,68.8,30.00,WSW,248,0.0,0.0,87,0.00,,,0.00,WeatherTracker,2013-08-22 07:10:00,
2013-08-22 02:15:00,72.7,68.6,30.00,WSW,248,0.0,0.0,87,0.00,,,0.00,WeatherTracker,2013-08-22 07:15:00,
2013-08-22 02:25:00,72.5,68.4,29.99,WSW,248,0.0,0.0,87,0.00,,,0.00,WeatherTracker,2013-08-22 07:25:00,
2013-08-22 02:30:00,72.4,68.3,29.99,WSW,248,0.0,0.0,87,0.00,,,0.00,WeatherTracker,2013-08-22 07:30:00,
2013-08-22 02:35:00,72.3,68.2,30.00,WSW,248,0.0,1.0,87,0.00,,,0.00,WeatherTracker,2013-08-22 07:35:00,
2013-08-22 02:40:00,72.2,68.4,30.00,WSW,248,0.0,1.0,88,0.00,,,0.00,WeatherTracker,2013-08-22 07:40:00,
2013-08-22 02:45:00,72.1,68.3,30.01,WSW,248,0.0,0.0,88,0.00,,,0.00,WeatherTracker,2013-08-22 07:45:00,
2013-08-22 02:50:00,72.0,68.2,30.01,WSW,248,0.0,0.0,88,0.00,,,0.00,WeatherTracker,2013-08-22 07:50:00,
2013-08-22 02:55:00,71.9,68.1,30.01,WSW,248,0.0,0.0,88,0.00,,,0.00,WeatherTracker,2013-08-22 07:55:00,
2013-08-22 03:05:00,71.7,68.3,30.01,WSW,248,0.0,0.0,89,0.00,,,0.00,WeatherTracker,2013-08-22 08:05:00,
2013-08-22 03:10:00,71.6,68.2,30.01,WSW,248,0.0,0.0,89,0.00,,,0.00,WeatherTracker,2013-08-22 08:10:00,
2013-08-22 03:15:00,71.5,68.1,30.01,WSW,248,0.0,0.0,89,0.00,,,0.00,WeatherTracker,2013-08-22 08:15:00,
2013-08-22 03:20:00,71.5,68.1,30.01,WSW,248,0.0,0.0,89,0.00,,,0.00,WeatherTracker,2013-08-22 08:20:00,
2013-08-22 03:25:00,71.4,68.0,30.01,WSW,248,0.0,0.0,89,0.00,,,0.00,WeatherTracker,2013-08-22 08:25:00,
2013-08-22 03:30:00,71.3,68.2,30.01,WSW,248,0.0,0.0,90,0.00,,,0.00,WeatherTracker,2013-08-22 08:30:00,
2013-08-22 03:40:00,71.2,68.1,30.01,WSW,248,0.0,0.0,90,0.00,,,0.00,WeatherTracker,2013-08-22 08:40:00,
2013-08-22 03:45:00,71.0,67.9,30.01,WSW,248,0.0,0.0,90,0.00,,,0.00,WeatherTracker,2013-08-22 08:45:00,
2013-08-22 03:50:00,71.0,67.9,30.01,WSW,248,0.0,0.0,90,0.00,,,0.00,WeatherTracker,2013-08-22 08:50:00,
2013-08-22 03:55:00,70.9,67.8,30.01,WSW,248,0.0,1.0,90,0.00,,,0.00,WeatherTracker,2013-08-22 08:55:00,
2013-08-22 04:00:00,70.8,67.7,30.01,WSW,248,0.0,1.0,90,0.00,,,0.00,WeatherTracker,2013-08-22 09:00:00,
2013-08-22 04:05:00,70.8,67.7,30.00,WSW,248,0.0,0.0,90,0.00,,,0.00,WeatherTracker,2013-08-22 09:05:00,
2013-08-22 04:15:00,70.6,67.5,30.00,WSW,248,0.0,0.0,90,0.00,,,0.00,WeatherTracker,2013-08-22 09:15:00,
2013-08-22 04:20:00,70.6,67.5,30.00,WSW,248,0.0,0.0,90,0.00,,,0.00,WeatherTracker,2013-08-22 09:20:00,
2013-08-22 04:25:00,70.5,67.4,30.00,WSW,248,0.0,0.0,90,0.00,,,0.00,WeatherTracker,2013-08-22 09:25:00,
2013-08-22 04:30:00,70.5,67.7,30.00,WSW,248,0.0,2.0,91,0.00,,,0.00,WeatherTracker,2013-08-22 09:30:00,
2013-08-22 04:35:00,70.5,67.7,30.00,WSW,248,0.0,2.0,91,0.00,,,0.00,WeatherTracker,2013-08-22 09:35:00,
2013-08-22 04:40:00,70.4,67.6,30.00,WSW,248,0.0,1.0,91,0.00,,,0.00,WeatherTracker,2013-08-22 09:40:00,
2013-08-22 04:45:00,70.4,67.6,30.00,WSW,248,0.0,1.0,91,0.00,,,0.00,WeatherTracker,2013-08-22 09:45:00,
2013-08-22 04:50:00,70.4,67.6,30.00,WSW,248,0.0,0.0,91,0.00,,,0.00,WeatherTracker,2013-08-22 09:50:00,
2013-08-22 04:55:00,70.4,67.6,30.00,WSW,248,0.0,0.0,91,0.00,,,0.00,WeatherTracker,2013-08-22 09:55:00,
2013-08-22 05:00:00,70.4,67.6,30.00,WSW,248,0.0,0.0,91,0.00,,,0.00,WeatherTracker,2013-08-22 10:00:00,
2013-08-22 05:05:00,70.4,67.6,30.00,WSW,248,0.0,1.0,91,0.00,,,0.00,WeatherTracker,2013-08-22 10:05:00,
2013-08-22 05:10:00,70.4,67.6,30.00,WSW,248,0.0,1.0,91,0.00,,,0.00,WeatherTracker,2013-08-22 10:10:00,
2013-08-22 05:15:00,70.3,67.5,30.00,WSW,248,0.0,0.0,91,0.00,,,0.00,WeatherTracker,2013-08-22 10:15:00,
2013-08-22 05:20:00,70.3,67.9,30.00,WSW,248,0.0,1.0,92,0.00,,,0.00,WeatherTracker,2013-08-22 10:20:00,
2013-08-22 05:25:00,70.3,67.9,30.00,WSW,248,0.0,1.0,92,0.00,,,0.00,WeatherTracker,2013-08-22 10:25:00,
2013-08-22 05:35:00,70.4,68.0,30.00,WSW,248,0.0,0.0,92,0.00,,,0.00,WeatherTracker,2013-08-22 10:35:00,
2013-08-22 05:40:00,70.4,68.0,30.00,WSW,248,0.0,0.0,92,0.00,,,0.00,WeatherTracker,2013-08-22 10:40:00,
2013-08-22 05:45:00,70.4,68.0,30.00,WSW,248,0.0,0.0,92,0.00,,,0.00,WeatherTracker,2013-08-22 10:45:00,
2013-08-22 05:50:00,70.4,68.3,30.00,WSW,248,0.0,1.0,93,0.00,,,0.00,WeatherTracker,2013-08-22 10:50:00,
2013-08-22 07:30:00,71.1,69.3,30.00,WNW,289,0.0,2.0,94,0.00,,,0.00,WeatherTracker,2013-08-22 12:30:00,
2013-08-22 07:40:00,71.1,69.3,30.02,WNW,289,0.0,1.0,94,0.00,,,0.00,WeatherTracker,2013-08-22 12:40:00,
2013-08-22 07:45:00,71.2,69.4,30.02,WNW,289,0.0,1.0,94,0.00,,,0.00,WeatherTracker,2013-08-22 12:45:00,
2013-08-22 07:50:00,71.3,69.5,30.02,WNW,289,0.0,1.0,94,0.00,,,0.00,WeatherTracker,2013-08-22 12:50:00,
2013-08-22 08:00:00,71.5,69.7,30.02,NW,323,1.0,3.0,94,0.00,,,0.00,WeatherTracker,2013-08-22 13:00:00,
2013-08-22 08:05:00,71.5,69.7,30.02,NW,323,0.0,2.0,94,0.00,,,0.00,WeatherTracker,2013-08-22 13:05:00,
2013-08-22 08:10:00,71.5,69.7,30.02,NW,323,0.0,2.0,94,0.00,,,0.00,WeatherTracker,2013-08-22 13:10:00,
2013-08-22 08:20:00,71.5,69.7,30.02,NW,323,0.0,0.0,94,0.00,,,0.00,WeatherTracker,2013-08-22 13:20:00,
2013-08-22 08:25:00,71.4,69.6,30.02,NW,323,0.0,1.0,94,0.00,,,0.00,WeatherTracker,2013-08-22 13:25:00,
2013-08-22 08:30:00,71.4,69.6,30.03,NW,323,0.0,1.0,94,0.00,,,0.00,WeatherTracker,2013-08-22 13:30:00,
2013-08-22 08:40:00,71.3,69.5,30.04,NW,323,1.0,1.0,94,0.00,,,0.00,WeatherTracker,2013-08-22 13:40:00,
2013-08-22 08:45:00,71.3,69.5,30.04,NW,323,0.0,2.0,94,0.01,,,0.01,WeatherTracker,2013-08-22 13:45:00,
2013-08-22 08:50:00,71.3,69.5,30.06,NW,323,0.0,3.0,94,0.01,,,0.01,WeatherTracker,2013-08-22 13:50:00,
2013-08-22 08:55:00,71.3,69.5,30.05,NW,323,0.0,3.0,94,0.02,,,0.02,WeatherTracker,2013-08-22 13:55:00,
2013-08-22 09:05:00,71.0,68.9,30.07,NW,306,6.0,18.0,93,0.05,,,0.05,WeatherTracker,2013-08-22 14:05:00,
2013-08-22 09:10:00,70.3,67.9,30.08,NNW,327,6.0,18.0,92,0.07,,,0.07,WeatherTracker,2013-08-22 14:10:00,
2013-08-22 09:15:00,69.7,67.3,30.08,NW,307,6.0,18.0,92,0.08,,,0.08,WeatherTracker,2013-08-22 14:15:00,
2013-08-22 09:20:00,69.2,66.8,30.08,WSW,257,9.0,12.0,92,0.10,,,0.10,WeatherTracker,2013-08-22 14:20:00,
2013-08-22 09:30:00,68.4,66.0,30.09,South,177,9.0,24.0,92,0.18,,,0.18,WeatherTracker,2013-08-22 14:30:00,
2013-08-22 09:35:00,68.2,66.1,30.11,NW,321,5.0,19.0,93,0.22,,,0.22,WeatherTracker,2013-08-22 14:35:00,
2013-08-22 09:45:00,68.0,66.2,30.13,NW,311,6.0,18.0,94,0.27,,,0.28,WeatherTracker,2013-08-22 14:45:00,
2013-08-22 09:50:00,67.8,66.0,30.14,NW,307,3.0,18.0,94,0.29,,,0.30,WeatherTracker,2013-08-22 14:50:00,
2013-08-22 09:55:00,67.7,65.9,30.14,NW,304,6.0,17.0,94,0.29,,,0.31,WeatherTracker,2013-08-22 14:55:00,
2013-08-22 10:05:00,67.5,65.7,30.14,NW,317,2.0,15.0,94,0.29,,,0.34,WeatherTracker,2013-08-22 15:05:00,
2013-08-22 10:10:00,67.5,65.7,30.14,NW,321,1.0,15.0,94,0.29,,,0.36,WeatherTracker,2013-08-22 15:10:00,
2013-08-22 10:15:00,67.5,66.0,30.14,NNW,329,1.0,9.0,95,0.31,,,0.39,WeatherTracker,2013-08-22 15:15:00,
2013-08-22 10:20:00,67.5,66.0,30.14,NW,315,1.0,9.0,95,0.31,,,0.41,WeatherTracker,2013-08-22 15:20:00,
2013-08-22 10:30:00,67.5,66.0,30.14,NNW,336,2.0,7.0,95,0.26,,,0.44,WeatherTracker,2013-08-22 15:30:00,
2013-08-22 10:35:00,67.5,66.0,30.14,West,278,2.0,8.0,95,0.25,,,0.47,WeatherTracker,2013-08-22 15:35:00,
2013-08-22 10:40:00,67.4,65.9,30.14,WNW,300,4.0,8.0,95,0.23,,,0.48,WeatherTracker,2013-08-22 15:40:00,
2013-08-22 10:50:00,67.4,65.9,30.13,NNW,340,0.0,8.0,95,0.23,,,0.52,WeatherTracker,2013-08-22 15:50:00,
2013-08-22 10:55:00,67.5,66.0,30.12,NNW,338,0.0,8.0,95,0.22,,,0.53,WeatherTracker,2013-08-22 15:55:00,
2013-08-22 11:00:00,67.4,65.9,30.12,NNW,338,0.0,5.0,95,0.22,,,0.55,WeatherTracker,2013-08-22 16:00:00,
2013-08-22 11:10:00,67.4,65.9,30.11,NNW,338,0.0,2.0,95,0.21,,,0.57,WeatherTracker,2013-08-22 16:10:00,
2013-08-22 11:15:00,67.5,66.0,30.11,NNW,338,0.0,2.0,95,0.19,,,0.58,WeatherTracker,2013-08-22 16:15:00,
2013-08-22 11:20:00,67.4,65.9,30.11,NNW,338,0.0,0.0,95,0.18,,,0.59,WeatherTracker,2013-08-22 16:20:00,
2013-08-22 11:30:00,67.5,66.0,30.12,NNW,338,0.0,1.0,95,0.16,,,0.60,WeatherTracker,2013-08-22 16:30:00,
2013-08-22 11:35:00,67.6,66.1,30.12,NNW,338,0.0,2.0,95,0.13,,,0.60,WeatherTracker,2013-08-22 16:35:00,
2013-08-22 11:40:00,67.7,66.5,30.11,NNW,338,0.0,2.0,96,0.13,,,0.61,WeatherTracker,2013-08-22 16:40:00,
2013-08-22 11:50:00,68.1,66.9,30.11,NNW,338,0.0,1.0,96,0.09,,,0.61,WeatherTracker,2013-08-22 16:50:00,
2013-08-22 11:55:00,68.2,67.0,30.10,NNW,338,0.0,1.0,96,0.08,,,0.61,WeatherTracker,2013-08-22 16:55:00,
2013-08-22 12:00:00,68.3,67.1,30.09,NNW,338,1.0,1.0,96,0.06,,,0.61,WeatherTracker,2013-08-22 17:00:00,
2013-08-22 12:05:00,68.3,67.1,30.08,NNW,338,0.0,2.0,96,0.05,,,0.61,WeatherTracker,2013-08-22 17:05:00,
2013-08-22 12:10:00,68.5,67.3,30.08,NNW,338,0.0,2.0,96,0.05,,,0.62,WeatherTracker,2013-08-22 17:10:00,
2013-08-22 12:20:00,68.5,67.3,30.08,NNW,338,0.0,1.0,96,0.03,,,0.62,WeatherTracker,2013-08-22 17:20:00,
2013-08-22 12:25:00,68.9,67.7,30.08,NNW,338,0.0,2.0,96,0.02,,,0.62,WeatherTracker,2013-08-22 17:25:00,
2013-08-22 12:30:00,69.1,67.9,30.08,NNW,338,0.0,2.0,96,0.02,,,0.62,WeatherTracker,2013-08-22 17:30:00,
2013-08-22 12:35:00,69.4,68.2,30.08,NNW,338,0.0,2.0,96,0.02,,,0.62,WeatherTracker,2013-08-22 17:35:00,
2013-08-22 12:40:00,69.7,68.5,30.08,NNW,338,0.0,1.0,96,0.01,,,0.62,WeatherTracker,2013-08-22 17:40:00,
2013-08-22 12:45:00,70.1,68.6,30.07,NNW,338,0.0,1.0,95,0.01,,,0.62,WeatherTracker,2013-08-22 17:45:00,
2013-08-22 12:50:00,70.7,69.5,30.07,NNW,338,0.0,0.0,96,0.01,,,0.62,WeatherTracker,2013-08-22 17:50:00,
2013-08-22 13:00:00,70.6,69.1,30.07,NNW,338,0.0,1.0,95,0.01,,,0.62,WeatherTracker,2013-08-22 18:00:00,
2013-08-22 13:10:00,70.2,68.7,30.06,NNE,24,2.0,2.0,95,0.00,,,0.62,WeatherTracker,2013-08-22 18:10:00,
2013-08-22 13:15:00,69.9,68.4,30.05,NNE,25,0.0,2.0,95,0.00,,,0.62,WeatherTracker,2013-08-22 18:15:00,
2013-08-22 13:20:00,69.7,68.2,30.05,NE,38,0.0,2.0,95,0.00,,,0.62,WeatherTracker,2013-08-22 18:20:00,
2013-08-22 13:25:00,69.8,68.3,30.04,ESE,106,1.0,2.0,95,0.00,,,0.62,WeatherTracker,2013-08-22 18:25:00,
2013-08-22 13:30:00,70.2,69.0,30.04,NNW,327,1.0,3.0,96,0.00,,,0.62,WeatherTracker,2013-08-22 18:30:00,
2013-08-22 13:40:00,70.5,69.0,30.03,NE,51,1.0,3.0,95,0.00,,,0.62,WeatherTracker,2013-08-22 18:40:00,
2013-08-22 13:45:00,70.6,69.1,30.03,ENE,61,0.0,3.0,95,0.00,,,0.62,WeatherTracker,2013-08-22 18:45:00,
2013-08-22 13:50:00,70.8,69.3,30.02,East,79,0.0,3.0,95,0.00,,,0.62,WeatherTracker,2013-08-22 18:50:00,
2013-08-22 13:55:00,70.7,69.2,30.02,NE,55,0.0,3.0,95,0.00,,,0.62,WeatherTracker,2013-08-22 18:55:00,
2013-08-22 14:05:00,70.8,69.0,30.01,ENE,76,0.0,3.0,94,0.00,,,0.62,WeatherTracker,2013-08-22 19:05:00,
2013-08-22 14:10:00,70.8,69.0,30.01,East,91,0.0,3.0,94,0.00,,,0.62,WeatherTracker,2013-08-22 19:10:00,
2013-08-22 14:15:00,70.8,69.0,30.02,NNW,329,1.0,2.0,94,0.00,,,0.62,WeatherTracker,2013-08-22 19:15:00,
2013-08-22 14:25:00,71.0,69.5,30.04,SSE,156,2.0,3.0,95,0.00,,,0.62,WeatherTracker,2013-08-22 19:25:00,
2013-08-22 14:30:00,71.3,69.8,30.02,SSE,154,0.0,2.0,95,0.00,,,0.62,WeatherTracker,2013-08-22 19:30:00,
2013-08-22 14:35:00,71.7,70.2,30.03,South,170,1.0,2.0,95,0.00,,,0.62,WeatherTracker,2013-08-22 19:35:00,
2013-08-22 14:40:00,72.0,70.5,30.04,SW,215,2.0,3.0,95,0.00,,,0.62,WeatherTracker,2013-08-22 19:40:00,
2013-08-22 14:50:00,73.5,71.3,30.05,West,266,0.0,5.0,93,0.00,,,0.62,WeatherTracker,2013-08-22 19:50:00,
2013-08-22 14:55:00,73.7,71.5,30.05,WSW,240,3.0,4.0,93,0.00,,,0.62,WeatherTracker,2013-08-22 19:55:00,
2013-08-22 15:00:00,73.6,71.1,30.06,SW,232,1.0,4.0,92,0.00,,,0.62,WeatherTracker,2013-08-22 20:00:00,
2013-08-22 15:05:00,73.5,70.4,30.06,WSW,237,0.0,4.0,90,0.00,,,0.62,WeatherTracker,2013-08-22 20:05:00,
2013-08-22 15:15:00,73.6,70.1,30.06,NNW,333,0.0,4.0,89,0.00,,,0.62,WeatherTracker,2013-08-22 20:15:00,
2013-08-22 15:20:00,73.9,70.1,30.06,NNW,336,0.0,4.0,88,0.00,,,0.62,WeatherTracker,2013-08-22 20:20:00,
2013-08-22 15:25:00,74.8,70.3,30.06,NNW,329,1.0,5.0,86,0.00,,,0.62,WeatherTracker,2013-08-22 20:25:00,
2013-08-22 15:35:00,75.1,69.6,30.06,NNW,330,0.0,3.0,83,0.00,,,0.62,WeatherTracker,2013-08-22 20:35:00,
2013-08-22 15:40:00,74.8,70.0,30.07,WSW,243,1.0,4.0,85,0.00,,,0.62,WeatherTracker,2013-08-22 20:40:00,
2013-08-22 15:45:00,75.6,70.4,30.06,NW,304,1.0,4.0,84,0.00,,,0.62,WeatherTracker,2013-08-22 20:45:00,
2013-08-22 15:55:00,74.9,70.1,30.07,SW,225,0.0,3.0,85,0.00,,,0.62,WeatherTracker,2013-08-22 20:55:00,
2013-08-22 16:00:00,74.4,69.9,30.06,SW,225,0.0,3.0,86,0.00,,,0.62,WeatherTracker,2013-08-22 21:00:00,
2013-08-22 16:05:00,74.4,69.2,30.07,SW,231,0.0,2.0,84,0.00,,,0.62,WeatherTracker,2013-08-22 21:05:00,
2013-08-22 16:10:00,75.0,70.2,30.07,WNW,282,1.0,3.0,85,0.00,,,0.62,WeatherTracker,2013-08-22 21:10:00,
2013-08-22 16:20:00,75.2,70.0,30.07,NNW,348,0.0,3.0,84,0.00,,,0.62,WeatherTracker,2013-08-22 21:20:00,
2013-08-22 16:25:00,74.9,69.4,30.07,SW,231,1.0,4.0,83,0.00,,,0.62,WeatherTracker,2013-08-22 21:25:00,
2013-08-22 16:30:00,74.8,69.3,30.07,SW,233,1.0,4.0,83,0.00,,,0.62,WeatherTracker,2013-08-22 21:30:00,
2013-08-22 16:40:00,75.8,70.3,30.07,NNW,332,0.0,4.0,83,0.00,,,0.62,WeatherTracker,2013-08-22 21:40:00,
2013-08-22 16:45:00,76.0,69.4,30.07,SW,231,2.0,5.0,80,0.00,,,0.62,WeatherTracker,2013-08-22 21:45:00,
2013-08-22 16:50:00,75.9,69.6,30.07,WNW,291,0.0,5.0,81,0.00,,,0.62,WeatherTracker,2013-08-22 21:50:00,
2013-08-22 17:00:00,76.2,69.2,30.07,NW,325,0.0,5.0,79,0.00,,,0.62,WeatherTracker,2013-08-22 22:00:00,
2013-08-22 17:05:00,76.1,69.5,30.07,NNW,333,0.0,5.0,80,0.00,,,0.62,WeatherTracker,2013-08-22 22:05:00,
2013-08-22 17:10:00,75.7,69.1,30.07,WNW,290,1.0,4.0,80,0.00,,,0.62,WeatherTracker,2013-08-22 22:10:00,
2013-08-22 17:20:00,75.7,69.4,30.07,North,355,0.0,5.0,81,0.00,,,0.62,WeatherTracker,2013-08-22 22:20:00,
2013-08-22 17:25:00,75.4,69.2,30.07,North,355,1.0,5.0,81,0.00,,,0.62,WeatherTracker,2013-08-22 22:25:00,
2013-08-22 17:30:00,75.5,69.6,30.08,West,281,1.0,5.0,82,0.00,,,0.62,WeatherTracker,2013-08-22 22:30:00,
2013-08-22 17:35:00,75.7,69.4,30.08,NNW,327,3.0,7.0,81,0.00,,,0.62,WeatherTracker,2013-08-22 22:35:00,
2013-08-22 17:45:00,75.7,70.2,30.08,SSW,211,0.0,7.0,83,0.00,,,0.62,WeatherTracker,2013-08-22 22:45:00,
2013-08-22 17:50:00,75.5,69.6,30.08,NNW,334,0.0,6.0,82,0.00,,,0.62,WeatherTracker,2013-08-22 22:50:00,
2013-08-22 17:55:00,75.5,69.2,30.08,West,259,1.0,4.0,81,0.00,,,0.62,WeatherTracker,2013-08-22 22:55:00,
2013-08-22 18:00:00,75.2,69.3,30.08,West,260,0.0,4.0,82,0.00,,,0.62,WeatherTracker,2013-08-22 23:00:00,
2013-08-22 18:05:00,75.2,69.3,30.08,West,260,3.0,3.0,82,0.00,,,0.62,WeatherTracker,2013-08-22 23:05:00,
2013-08-22 18:15:00,75.3,69.1,30.08,SW,232,0.0,4.0,81,0.00,,,0.62,WeatherTracker,2013-08-22 23:15:00,
2013-08-22 18:20:00,75.4,69.5,30.08,West,261,2.0,3.0,82,0.00,,,0.62,WeatherTracker,2013-08-22 23:20:00,
2013-08-22 18:25:00,75.4,69.2,30.08,North,360,1.0,4.0,81,0.00,,,0.62,WeatherTracker,2013-08-22 23:25:00,
2013-08-22 18:35:00,75.4,69.2,30.08,WSW,244,2.0,3.0,81,0.00,,,0.62,WeatherTracker,2013-08-22 23:35:00,
2013-08-22 18:40:00,75.3,69.1,30.07,WSW,244,2.0,3.0,81,0.00,,,0.62,WeatherTracker,2013-08-22 23:40:00,
2013-08-22 18:45:00,75.2,68.6,30.07,SW,221,2.0,3.0,80,0.00,,,0.62,WeatherTracker,2013-08-22 23:45:00,
2013-08-22 18:50:00,75.2,69.0,30.07,SW,225,1.0,4.0,81,0.00,,,0.62,WeatherTracker,2013-08-22 23:50:00,
2013-08-22 19:00:00,75.0,68.8,30.08,SW,216,0.0,3.0,81,0.00,,,0.62,WeatherTracker,2013-08-23 00:00:00,
2013-08-22 19:05:00,74.9,69.0,30.08,SW,216,0.0,3.0,82,0.00,,,0.62,WeatherTracker,2013-08-23 00:05:00,
2013-08-22 19:10:00,74.8,68.9,30.08,WSW,250,0.0,4.0,82,0.00,,,0.62,WeatherTracker,2013-08-23 00:10:00,
2013-08-22 19:20:00,74.4,68.5,30.07,WSW,250,0.0,2.0,82,0.00,,,0.62,WeatherTracker,2013-08-23 00:20:00,
2013-08-22 19:25:00,74.1,68.2,30.08,WSW,250,0.0,2.0,82,0.00,,,0.62,WeatherTracker,2013-08-23 00:25:00,
2013-08-22 19:30:00,73.9,68.4,30.08,WSW,250,0.0,2.0,83,0.00,,,0.62,WeatherTracker,2013-08-23 00:30:00,
2013-08-22 19:40:00,73.4,67.9,30.08,WSW,250,0.0,1.0,83,0.00,,,0.62,WeatherTracker,2013-08-23 00:40:00,
2013-08-22 19:45:00,73.1,68.0,30.08,WSW,250,0.0,0.0,84,0.00,,,0.62,WeatherTracker,2013-08-23 00:45:00,
2013-08-22 19:50:00,72.9,67.8,30.08,WSW,250,0.0,0.0,84,0.00,,,0.62,WeatherTracker,2013-08-23 00:50:00,
2013-08-22 19:55:00,72.6,67.8,30.09,WSW,250,0.0,0.0,85,0.00,,,0.62,WeatherTracker,2013-08-23 00:55:00,
2013-08-22 20:00:00,72.3,67.5,30.09,WSW,250,0.0,0.0,85,0.00,,,0.62,WeatherTracker,2013-08-23 01:00:00,
2013-08-22 20:05:00,72.0,67.2,30.09,WSW,250,0.0,0.0,85,0.00,,,0.62,WeatherTracker,2013-08-23 01:05:00,
2013-08-22 20:10:00,71.7,67.3,30.09,WSW,250,0.0,0.0,86,0.00,,,0.62,WeatherTracker,2013-08-23 01:10:00,
2013-08-22 20:20:00,71.1,67.0,30.09,WSW,250,0.0,0.0,87,0.00,,,0.62,WeatherTracker,2013-08-23 01:20:00,
2013-08-22 20:25:00,70.8,66.7,30.09,WSW,250,0.0,0.0,87,0.00,,,0.62,WeatherTracker,2013-08-23 01:25:00,
2013-08-22 20:30:00,70.6,66.5,30.09,WSW,250,0.0,0.0,87,0.00,,,0.62,WeatherTracker,2013-08-23 01:30:00,
2013-08-22 20:40:00,70.2,66.5,30.10,WSW,250,0.0,0.0,88,0.00,,,0.62,WeatherTracker,2013-08-23 01:40:00,
2013-08-22 20:45:00,69.9,66.2,30.10,WSW,250,0.0,0.0,88,0.00,,,0.62,WeatherTracker,2013-08-23 01:45:00,
2013-08-22 20:50:00,69.8,66.4,30.10,WSW,250,0.0,0.0,89,0.00,,,0.62,WeatherTracker,2013-08-23 01:50:00,
2013-08-22 21:00:00,69.4,66.0,30.10,WSW,250,0.0,0.0,89,0.00,,,0.62,WeatherTracker,2013-08-23 02:00:00,
2013-08-22 21:05:00,69.3,65.9,30.10,WSW,250,0.0,0.0,89,0.00,,,0.62,WeatherTracker,2013-08-23 02:05:00,
2013-08-22 21:15:00,69.0,65.9,30.11,WSW,250,0.0,0.0,90,0.00,,,0.62,WeatherTracker,2013-08-23 02:15:00,
2013-08-22 21:20:00,68.8,65.7,30.11,WSW,250,0.0,0.0,90,0.00,,,0.62,WeatherTracker,2013-08-23 02:20:00,
2013-08-22 21:25:00,68.7,65.6,30.11,WSW,250,0.0,0.0,90,0.00,,,0.62,WeatherTracker,2013-08-23 02:25:00,
2013-08-22 21:30:00,68.6,65.5,30.11,WSW,250,0.0,0.0,90,0.00,,,0.62,WeatherTracker,2013-08-23 02:30:00,
2013-08-22 21:40:00,68.3,65.2,30.11,WSW,250,0.0,0.0,90,0.00,,,0.62,WeatherTracker,2013-08-23 02:40:00,
2013-08-22 21:45:00,68.3,65.2,30.11,WSW,250,0.0,0.0,90,0.00,,,0.62,WeatherTracker,2013-08-23 02:45:00,
2013-08-22 21:50:00,68.2,65.1,30.11,WSW,250,0.0,0.0,90,0.00,,,0.62,WeatherTracker,2013-08-23 02:50:00,
2013-08-22 22:00:00,68.0,65.3,30.11,WSW,250,0.0,0.0,91,0.00,,,0.62,WeatherTracker,2013-08-23 03:00:00,
2013-08-22 22:05:00,67.9,65.2,30.12,WSW,250,0.0,0.0,91,0.00,,,0.62,WeatherTracker,2013-08-23 03:05:00,
2013-08-22 22:10:00,67.8,65.1,30.12,WSW,250,0.0,0.0,91,0.00,,,0.62,WeatherTracker,2013-08-23 03:10:00,
2013-08-22 22:15:00,67.7,65.0,30.12,WSW,250,0.0,0.0,91,0.00,,,0.62,WeatherTracker,2013-08-23 03:15:00,
2013-08-22 22:20:00,67.6,64.9,30.12,WSW,250,0.0,0.0,91,0.00,,,0.62,WeatherTracker,2013-08-23 03:20:00,
2013-08-22 22:30:00,67.4,64.7,30.12,WSW,250,0.0,0.0,91,0.00,,,0.62,WeatherTracker,2013-08-23 03:30:00,
2013-08-22 22:35:00,67.4,65.0,30.12,WSW,250,0.0,1.0,92,0.00,,,0.62,WeatherTracker,2013-08-23 03:35:00,
2013-08-22 22:45:00,67.3,64.9,30.12,WSW,250,0.0,2.0,92,0.00,,,0.62,WeatherTracker,2013-08-23 03:45:00,
2013-08-22 22:50:00,67.2,64.8,30.12,WSW,250,0.0,0.0,92,0.00,,,0.62,WeatherTracker,2013-08-23 03:50:00,
2013-08-22 23:00:00,67.1,64.7,30.12,WSW,250,0.0,0.0,92,0.00,,,0.62,WeatherTracker,2013-08-23 04:00:00,
2013-08-22 23:05:00,67.1,64.7,30.12,WSW,250,0.0,0.0,92,0.00,,,0.62,WeatherTracker,2013-08-23 04:05:00,
2013-08-22 23:10:00,67.1,64.7,30.12,WSW,250,0.0,0.0,92,0.00,,,0.62,WeatherTracker,2013-08-23 04:10:00,
2013-08-22 23:20:00,67.0,64.6,30.13,WSW,250,0.0,0.0,92,0.00,,,0.62,WeatherTracker,2013-08-23 04:20:00,
2013-08-22 23:25:00,67.0,64.6,30.13,WSW,250,0.0,0.0,92,0.00,,,0.62,WeatherTracker,2013-08-23 04:25:00,
2013-08-22 23:30:00,66.9,64.5,30.12,WSW,250,0.0,0.0,92,0.00,,,0.62,WeatherTracker,2013-08-23 04:30:00,
2013-08-22 23:40:00,66.8,64.4,30.13,WSW,250,0.0,1.0,92,0.00,,,0.62,WeatherTracker,2013-08-23 04:40:00,
2013-08-22 23:45:00,66.7,64.6,30.13,WSW,250,0.0,1.0,93,0.00,,,0.62,WeatherTracker,2013-08-23 04:45:00,
2013-08-22 23:50:00,66.7,64.6,30.13,WSW,250,0.0,1.0,93,0.00,,,0.62,WeatherTracker,2013-08-23 04:50:00,
2013-08-22 23:55:00,66.6,64.5,30.13,WSW,250,0.0,1.0,93,0.00,,,0.62,WeatherTracker,2013-08-23 04:55:00,